Etusivu
METAR-TAF:

METAR-TAF

Lentoasemat :

Mount Pleasant Municipal Airport

Mount Pleasant, Michigan, Yhdysvallat

Leveyspiiri: 43-37N, Pituuspiiri: 084-44W, korkeus merenpinnasta: 230 m

Tämänhetkinen sää

Tämä raportti tehtiin 17 minuuttia sitten, kello 19.35 UTC
Tuuli 7 kn etelästä
Lämpötila 13°C
Kosteus 77%
Ilmanpaine 1004 hPa
Näkyvyys: 16.1 km
Pilvistä 1400 ft:n korkeudessa

METAR: KMOP 071935Z AUTO 17007KT 10SM OVC014 13/09 A2966 RMK AO2 T01320090

Aika: 15:52 (19:52 UTC)


TAF: puuttuu

Säähavainnot ja -ennusteet yli 4000 lentoasemalta (METAR- ja TAF-raportit).

Käytössä olevat sääasemat on merkitty karttaan keltaisilla ja punaisilla pisteillä.

Aseta hiiri pisteen päälle nähdäksesi sääaseman nimen.

Klikkaa sitten nähdäksesi säähavainnot ja -ennusteet.

Kartan vaihtaminen: klikkaa mustalla rastilla varustettuja vihreitä pisteitä, niin voit zoomata sisään; viivalla varustettua vihreää pistettä, niin voit zoomata ulos tai vihreitä nuolia, niin pääset viereisille kartoille.


METAR-TAF: